createdAt,value
2022-09-30T00:01:39.779Z,16.67
2022-09-30T00:04:20.068Z,17.45
2022-09-30T00:06:48.062Z,21.83
2022-09-30T00:09:16.323Z,15.50
2022-09-30T00:11:43.656Z,16.65
2022-09-30T00:14:21.831Z,17.38
2022-09-30T00:16:49.789Z,18.08
2022-09-30T00:19:16.586Z,18.63
2022-09-30T00:21:44.102Z,23.35
2022-09-30T00:24:11.353Z,16.90
2022-09-30T00:26:38.188Z,18.33
2022-09-30T00:29:05.361Z,17.48
2022-09-30T00:31:35.487Z,13.38
2022-09-30T00:34:11.117Z,18.58
2022-09-30T00:36:51.629Z,16.33
2022-09-30T00:39:20.123Z,18.00
2022-09-30T00:41:52.027Z,13.68
2022-09-30T00:44:50.661Z,17.85
2022-09-30T00:47:39.096Z,14.25
2022-09-30T00:50:49.606Z,22.10
2022-09-30T00:53:30.365Z,14.95
2022-09-30T00:56:10.496Z,15.88
2022-09-30T00:59:12.464Z,16.63
2022-09-30T01:01:42.096Z,15.68
2022-09-30T01:04:20.730Z,14.77
2022-09-30T01:06:48.648Z,13.68
2022-09-30T01:09:16.495Z,13.38
2022-09-30T01:11:43.509Z,15.45
2022-09-30T01:14:21.562Z,14.07
2022-09-30T01:17:10.579Z,16.50
2022-09-30T01:20:15.738Z,12.00
2022-09-30T01:23:14.401Z,15.25
2022-09-30T01:26:17.037Z,13.45
2022-09-30T01:29:23.916Z,13.13
2022-09-30T01:32:11.492Z,14.45
2022-09-30T01:34:55.192Z,14.25
2022-09-30T01:37:30.340Z,14.88
2022-09-30T01:40:33.935Z,12.30
2022-09-30T01:43:22.128Z,11.05
2022-09-30T01:46:00.256Z,12.55
2022-09-30T01:48:44.820Z,13.07
2022-09-30T01:51:37.368Z,17.88
2022-09-30T01:54:24.146Z,15.68
2022-09-30T01:57:09.699Z,13.82
2022-09-30T01:59:50.737Z,12.00
2022-09-30T02:02:25.385Z,11.20
2022-09-30T02:05:05.454Z,12.73
2022-09-30T02:07:45.417Z,16.13
2022-09-30T02:10:32.908Z,14.75
2022-09-30T02:13:10.798Z,15.25
2022-09-30T02:15:49.695Z,10.38
2022-09-30T02:18:39.218Z,10.90
2022-09-30T02:21:09.339Z,12.00
2022-09-30T02:23:40.837Z,13.90
2022-09-30T02:26:26.954Z,11.93
2022-09-30T02:29:25.319Z,13.27
2022-09-30T02:32:02.167Z,10.77
2022-09-30T02:34:45.740Z,15.52
2022-09-30T02:37:20.043Z,14.82
2022-09-30T02:39:59.760Z,10.82
2022-09-30T02:42:30.082Z,10.70
2022-09-30T02:45:17.060Z,10.25
2022-09-30T02:48:03.154Z,11.00
2022-09-30T02:50:50.244Z,10.80
2022-09-30T02:53:37.808Z,11.05
2022-09-30T02:56:38.654Z,9.27
2022-09-30T02:59:05.718Z,12.02
2022-09-30T03:01:32.946Z,10.43
2022-09-30T03:04:11.066Z,11.75
2022-09-30T03:06:39.208Z,13.02
2022-09-30T03:09:07.817Z,10.50
2022-09-30T03:11:36.087Z,12.68
2022-09-30T03:14:25.669Z,10.75
2022-09-30T03:17:17.307Z,9.40
2022-09-30T03:20:25.558Z,11.25
2022-09-30T03:23:46.128Z,9.95
2022-09-30T03:26:24.874Z,11.10
2022-09-30T03:29:16.019Z,10.05
2022-09-30T03:32:08.291Z,12.48
2022-09-30T03:35:10.099Z,9.80
2022-09-30T03:38:13.783Z,8.68
2022-09-30T03:40:58.845Z,9.88
2022-09-30T03:43:44.202Z,10.43
2022-09-30T03:49:28.547Z,8.90
2022-09-30T03:51:58.748Z,8.90
2022-09-30T03:54:26.057Z,10.32
2022-09-30T03:56:52.816Z,12.20
2022-09-30T03:59:28.418Z,10.10
2022-09-30T04:02:01.356Z,11.77
2022-09-30T04:04:28.259Z,9.18
2022-09-30T04:06:55.083Z,10.20
2022-09-30T04:09:22.025Z,9.88
2022-09-30T04:11:49.103Z,13.32
2022-09-30T04:14:15.945Z,10.35
2022-09-30T04:16:43.110Z,8.57
2022-09-30T04:19:10.073Z,7.82
2022-09-30T04:21:36.837Z,10.02
2022-09-30T04:24:03.943Z,11.13
2022-09-30T04:26:30.710Z,13.40
2022-09-30T04:28:58.672Z,9.88
2022-09-30T04:31:25.905Z,8.65
2022-09-30T04:33:52.750Z,8.80
2022-09-30T04:36:19.585Z,16.48
2022-09-30T04:38:46.405Z,9.18
2022-09-30T04:41:17.227Z,8.02
2022-09-30T04:43:46.825Z,9.35
2022-09-30T04:46:19.477Z,9.63
2022-09-30T04:48:47.540Z,9.43
2022-09-30T04:51:21.723Z,12.20
2022-09-30T04:53:48.977Z,10.02
2022-09-30T04:56:19.364Z,9.68
2022-09-30T04:58:46.711Z,8.35
2022-09-30T05:01:16.970Z,8.63
2022-09-30T05:03:44.743Z,7.60
2022-09-30T05:06:14.108Z,10.27
2022-09-30T05:08:45.930Z,8.10
2022-09-30T05:11:20.528Z,14.73
2022-09-30T05:13:48.837Z,11.80
2022-09-30T05:16:17.238Z,9.18
2022-09-30T05:18:46.312Z,8.95
2022-09-30T05:21:20.426Z,8.35
2022-09-30T05:23:47.891Z,8.70
2022-09-30T05:26:14.861Z,12.00
2022-09-30T05:28:42.608Z,11.00
2022-09-30T05:31:10.034Z,10.15
2022-09-30T05:33:36.951Z,9.57
2022-09-30T05:36:07.780Z,13.93
2022-09-30T05:38:35.803Z,11.57
2022-09-30T05:41:13.461Z,9.23
2022-09-30T05:43:42.701Z,11.75
2022-09-30T05:46:09.515Z,11.65
2022-09-30T05:48:36.562Z,12.45
2022-09-30T05:51:03.526Z,12.20
2022-09-30T05:53:34.466Z,16.67
2022-09-30T05:56:01.658Z,10.88
2022-09-30T05:58:29.293Z,13.48
2022-09-30T06:00:56.224Z,12.82
2022-09-30T06:03:23.361Z,9.38
2022-09-30T06:05:57.665Z,12.15
2022-09-30T06:08:24.605Z,13.52
2022-09-30T06:10:51.557Z,16.30
2022-09-30T06:13:19.251Z,12.55
2022-09-30T06:15:57.068Z,10.45
2022-09-30T06:18:25.447Z,14.85
2022-09-30T06:20:55.595Z,12.23
2022-09-30T06:23:22.435Z,15.00
2022-09-30T06:25:53.893Z,9.68
2022-09-30T06:28:22.362Z,13.40
2022-09-30T06:30:49.509Z,12.77
2022-09-30T06:33:17.437Z,19.30
2022-09-30T06:35:47.213Z,8.50
2022-09-30T06:38:15.786Z,12.80
2022-09-30T06:40:50.024Z,17.95
2022-09-30T06:43:17.998Z,14.75
2022-09-30T06:45:48.680Z,13.75
2022-09-30T06:48:20.516Z,20.38
2022-09-30T06:51:01.228Z,20.00
2022-09-30T06:53:29.624Z,13.98
2022-09-30T06:55:58.375Z,17.50
2022-09-30T06:58:25.581Z,16.58
2022-09-30T07:01:04.833Z,13.93
2022-09-30T07:03:35.762Z,19.15
2022-09-30T07:06:05.604Z,15.65
2022-09-30T07:08:36.269Z,13.55
2022-09-30T07:11:12.546Z,15.35
2022-09-30T07:13:39.631Z,15.07
2022-09-30T07:16:07.011Z,16.42
2022-09-30T07:18:33.964Z,16.90
2022-09-30T07:21:00.867Z,16.02
2022-09-30T07:23:27.707Z,17.30
2022-09-30T07:26:00.282Z,14.65
2022-09-30T07:28:35.178Z,18.95
2022-09-30T07:31:31.950Z,16.25
2022-09-30T07:33:58.709Z,17.10
2022-09-30T07:36:33.907Z,18.88
2022-09-30T07:39:07.444Z,18.95
2022-09-30T07:41:39.052Z,18.70
2022-09-30T07:44:13.201Z,23.10
2022-09-30T07:46:41.377Z,19.83
2022-09-30T07:49:14.858Z,18.30
2022-09-30T07:51:45.968Z,19.95
2022-09-30T07:54:16.965Z,20.45
2022-09-30T07:57:09.274Z,23.00
2022-09-30T07:59:37.228Z,20.98
2022-09-30T08:02:06.735Z,21.95
2022-09-30T08:04:35.062Z,17.65
2022-09-30T08:07:03.300Z,22.35
2022-09-30T08:09:31.578Z,24.75
2022-09-30T08:11:59.195Z,21.50
2022-09-30T08:14:28.039Z,26.48
2022-09-30T08:17:00.184Z,23.42
2022-09-30T08:19:30.347Z,27.25
2022-09-30T08:21:57.982Z,24.70
2022-09-30T08:24:27.057Z,26.13
2022-09-30T08:26:55.076Z,23.90
2022-09-30T08:29:49.848Z,27.08
2022-09-30T08:32:09.148Z,27.35
2022-09-30T08:34:36.195Z,24.42
2022-09-30T08:37:08.691Z,22.55
2022-09-30T08:39:37.452Z,23.77
2022-09-30T08:42:36.542Z,23.90
2022-09-30T08:45:39.883Z,25.20
2022-09-30T08:48:44.432Z,26.38
2022-09-30T08:51:45.459Z,24.45
2022-09-30T08:54:18.061Z,30.25
2022-09-30T08:56:46.530Z,22.55
2022-09-30T08:59:28.347Z,26.98
2022-09-30T09:02:24.002Z,27.48
2022-09-30T09:04:52.610Z,22.08
2022-09-30T09:07:32.822Z,24.08
2022-09-30T09:10:28.535Z,19.92
2022-09-30T09:13:17.409Z,22.20
2022-09-30T09:16:02.370Z,24.20
2022-09-30T09:18:49.001Z,19.02
2022-09-30T09:21:32.067Z,20.65
2022-09-30T09:24:03.576Z,25.20
2022-09-30T09:26:36.580Z,24.08
2022-09-30T09:29:41.986Z,23.55
2022-09-30T09:32:18.011Z,24.58
2022-09-30T09:34:52.718Z,24.25
2022-09-30T09:38:09.390Z,25.42
2022-09-30T09:44:02.244Z,30.42
2022-09-30T09:46:45.640Z,24.45
2022-09-30T09:49:20.610Z,25.00
2022-09-30T09:54:31.154Z,26.38
2022-09-30T09:57:10.761Z,22.20
2022-09-30T09:59:58.301Z,26.48
2022-09-30T10:02:31.934Z,22.38
2022-09-30T10:05:03.676Z,27.63
2022-09-30T10:07:34.449Z,24.25
2022-09-30T10:10:24.142Z,22.65
2022-09-30T10:12:51.411Z,25.10
2022-09-30T10:15:23.336Z,20.63
2022-09-30T10:17:56.761Z,19.92
2022-09-30T10:20:54.226Z,19.70
2022-09-30T10:23:36.002Z,26.38
2022-09-30T10:26:20.224Z,22.10
2022-09-30T10:29:02.057Z,22.58
2022-09-30T10:31:48.219Z,21.58
2022-09-30T10:34:42.239Z,25.13
2022-09-30T10:37:20.229Z,21.95
2022-09-30T10:40:06.561Z,22.42
2022-09-30T10:42:41.448Z,20.83
2022-09-30T10:45:37.030Z,22.98
2022-09-30T10:51:01.859Z,19.80
2022-09-30T10:53:33.939Z,18.77
2022-09-30T10:56:02.985Z,23.90
2022-09-30T11:01:46.981Z,17.27
2022-09-30T11:04:29.101Z,20.73
2022-09-30T11:07:23.572Z,23.10
2022-09-30T11:10:31.594Z,18.45
2022-09-30T11:13:23.413Z,17.90
2022-09-30T11:16:08.864Z,13.25
2022-09-30T11:19:13.884Z,14.82
2022-09-30T11:21:53.012Z,14.10
2022-09-30T11:24:39.756Z,15.40
2022-09-30T11:27:24.159Z,14.35
2022-09-30T11:30:16.481Z,15.18
2022-09-30T11:33:04.994Z,10.45
2022-09-30T11:36:08.767Z,14.23
2022-09-30T11:39:17.999Z,15.02
2022-09-30T11:42:11.934Z,10.18
2022-09-30T11:44:48.405Z,13.52
2022-09-30T11:47:47.020Z,14.90
2022-09-30T11:51:00.370Z,13.52
2022-09-30T11:53:46.683Z,14.27
2022-09-30T11:56:43.093Z,13.52
2022-09-30T11:59:47.538Z,12.82
2022-09-30T12:02:55.927Z,11.15
2022-09-30T12:05:43.544Z,10.77
2022-09-30T12:08:32.009Z,10.13
2022-09-30T12:11:40.033Z,10.50
2022-09-30T12:14:49.187Z,9.48
2022-09-30T12:17:39.524Z,9.68
2022-09-30T12:20:41.559Z,8.82
2022-09-30T12:23:39.642Z,13.25
2022-09-30T12:26:19.444Z,8.60
2022-09-30T12:29:19.134Z,11.27
2022-09-30T12:32:09.470Z,9.18
2022-09-30T12:35:08.878Z,7.10
2022-09-30T12:37:50.613Z,8.55
2022-09-30T12:41:02.555Z,6.55
2022-09-30T12:44:35.575Z,6.13
2022-09-30T12:47:46.146Z,9.77
2022-09-30T12:50:18.929Z,6.45
2022-09-30T12:52:46.367Z,6.60
2022-09-30T12:55:31.215Z,5.88
2022-09-30T12:58:02.262Z,8.13
2022-09-30T13:00:34.707Z,7.10
2022-09-30T13:03:17.212Z,6.88
2022-09-30T13:06:00.134Z,4.65
2022-09-30T13:08:47.854Z,5.10
2022-09-30T13:11:45.461Z,6.80
2022-09-30T13:14:26.015Z,4.82
2022-09-30T13:17:03.055Z,3.83
2022-09-30T13:19:47.442Z,7.07
2022-09-30T13:22:29.392Z,6.93
2022-09-30T13:25:12.083Z,7.05
2022-09-30T13:27:48.656Z,8.98
2022-09-30T13:30:38.525Z,6.28
2022-09-30T13:33:29.362Z,5.03
2022-09-30T13:36:06.458Z,8.02
2022-09-30T13:38:48.100Z,5.35
2022-09-30T13:44:16.685Z,5.55
2022-09-30T13:47:09.785Z,4.97
2022-09-30T13:49:47.924Z,4.18
2022-09-30T13:52:31.421Z,5.80
2022-09-30T13:55:07.005Z,5.28
2022-09-30T13:58:22.493Z,6.68
2022-09-30T14:01:02.914Z,6.80
2022-09-30T14:03:46.874Z,7.05
2022-09-30T14:06:34.388Z,5.95
2022-09-30T14:09:47.166Z,4.78
2022-09-30T14:12:51.750Z,4.82
2022-09-30T14:15:57.197Z,5.35
2022-09-30T14:19:01.863Z,4.28
2022-09-30T14:21:48.157Z,5.70
2022-09-30T14:24:26.977Z,6.53
2022-09-30T14:27:09.133Z,5.30
2022-09-30T14:29:51.106Z,4.85
2022-09-30T14:32:26.564Z,5.20
2022-09-30T14:34:57.047Z,7.63
2022-09-30T14:37:36.853Z,5.47
2022-09-30T14:40:15.612Z,6.47
2022-09-30T14:42:45.559Z,4.78
2022-09-30T14:45:29.427Z,5.18
2022-09-30T14:48:07.117Z,7.13
2022-09-30T14:51:11.173Z,6.55
2022-09-30T14:54:03.051Z,4.28
2022-09-30T14:56:40.835Z,7.25
2022-09-30T14:59:26.976Z,6.88
2022-09-30T15:02:18.344Z,7.93
2022-09-30T15:05:01.109Z,5.03
2022-09-30T15:07:30.789Z,4.60
2022-09-30T15:10:17.902Z,4.63
2022-09-30T15:12:45.242Z,5.82
2022-09-30T15:15:49.413Z,6.53
2022-09-30T15:18:35.503Z,6.22
2022-09-30T15:26:04.147Z,2.50
2022-09-30T15:28:31.788Z,5.57
2022-09-30T15:30:59.077Z,9.00
2022-09-30T15:33:31.716Z,4.60
2022-09-30T15:36:17.261Z,2.72
2022-09-30T15:38:51.779Z,3.75
2022-09-30T15:41:19.237Z,5.13
2022-09-30T15:43:52.908Z,4.60
2022-09-30T15:46:27.666Z,2.97
2022-09-30T15:49:32.210Z,5.40
2022-09-30T15:52:40.006Z,2.85
2022-09-30T15:55:43.574Z,2.35
2022-09-30T15:58:39.003Z,3.63
2022-09-30T16:01:21.550Z,3.40
2022-09-30T16:04:03.206Z,4.15
2022-09-30T16:06:38.445Z,3.55
2022-09-30T16:09:20.740Z,3.80
2022-09-30T16:12:11.714Z,2.47
2022-09-30T16:14:54.213Z,4.32
2022-09-30T16:17:35.915Z,4.00
2022-09-30T16:20:09.270Z,4.15
2022-09-30T16:22:42.455Z,2.85
2022-09-30T16:25:28.302Z,4.72
2022-09-30T16:28:11.459Z,4.95
2022-09-30T16:30:47.758Z,4.40
2022-09-30T16:33:19.718Z,4.75
2022-09-30T16:35:50.035Z,5.03
2022-09-30T16:38:18.826Z,5.13
2022-09-30T16:40:46.064Z,2.78
2022-09-30T16:43:12.992Z,2.85
2022-09-30T16:45:40.982Z,3.30
2022-09-30T16:48:18.999Z,3.72
2022-09-30T16:51:14.473Z,3.75
2022-09-30T16:53:41.706Z,3.65
2022-09-30T16:56:19.226Z,3.83
2022-09-30T16:58:47.189Z,4.60
2022-09-30T17:01:20.950Z,4.15
2022-09-30T17:03:49.337Z,9.48
2022-09-30T17:06:18.932Z,3.42
2022-09-30T17:08:48.808Z,5.22
2022-09-30T17:11:15.645Z,4.68
2022-09-30T17:13:42.550Z,6.00
2022-09-30T17:16:09.436Z,4.40
2022-09-30T17:18:36.357Z,4.32
2022-09-30T17:21:03.667Z,3.25
2022-09-30T17:23:30.580Z,3.55
2022-09-30T17:25:58.009Z,2.75
2022-09-30T17:28:25.146Z,3.40
2022-09-30T17:30:51.994Z,5.82
2022-09-30T17:33:19.864Z,7.68
2022-09-30T17:36:02.605Z,7.65
2022-09-30T17:38:29.755Z,3.75
2022-09-30T17:41:15.211Z,5.25
2022-09-30T17:46:09.515Z,5.95
2022-09-30T17:48:38.045Z,3.90
2022-09-30T17:51:06.000Z,8.35
2022-09-30T17:53:32.884Z,6.57
2022-09-30T17:56:16.720Z,8.32
2022-09-30T17:58:47.337Z,7.18
2022-09-30T18:01:16.449Z,6.28
2022-09-30T18:03:44.994Z,4.28
2022-09-30T18:06:14.321Z,5.25
2022-09-30T18:08:41.506Z,5.38
2022-09-30T18:11:08.484Z,5.00
2022-09-30T18:13:35.749Z,3.85
2022-09-30T18:16:06.912Z,5.45
2022-09-30T18:18:35.272Z,6.18
2022-09-30T18:21:02.372Z,5.05
2022-09-30T18:23:29.263Z,7.53
2022-09-30T18:25:58.341Z,5.68
2022-09-30T18:28:25.449Z,5.20
2022-09-30T18:30:52.298Z,3.75
2022-09-30T18:33:21.553Z,5.53
2022-09-30T18:35:49.180Z,3.60
2022-09-30T18:38:16.228Z,4.13
2022-09-30T18:40:46.445Z,3.63
2022-09-30T18:43:14.427Z,4.57
2022-09-30T18:45:43.538Z,3.13
2022-09-30T18:48:10.983Z,5.13
2022-09-30T18:50:38.612Z,4.70
2022-09-30T18:53:09.852Z,5.72
2022-09-30T18:55:43.727Z,10.68
2022-09-30T18:58:10.533Z,6.57
2022-09-30T19:00:37.758Z,11.23
2022-09-30T19:03:04.820Z,5.45
2022-09-30T19:05:31.632Z,4.85
2022-09-30T19:07:59.254Z,4.82
2022-09-30T19:10:26.255Z,5.03
2022-09-30T19:12:53.164Z,2.58
2022-09-30T19:15:20.032Z,5.72
2022-09-30T19:17:50.066Z,3.90
2022-09-30T19:20:17.655Z,4.28
2022-09-30T19:22:45.561Z,5.53
2022-09-30T19:25:12.866Z,4.95
2022-09-30T19:27:42.557Z,3.13
2022-09-30T19:30:13.332Z,5.97
2022-09-30T19:32:40.584Z,8.13
2022-09-30T19:35:11.597Z,4.28
2022-09-30T19:37:42.827Z,5.00
2022-09-30T19:40:20.906Z,6.03
2022-09-30T19:42:49.491Z,4.63
2022-09-30T19:45:17.513Z,4.03
2022-09-30T19:47:45.741Z,4.80
2022-09-30T19:50:12.554Z,5.25
2022-09-30T19:52:50.086Z,4.93
2022-09-30T19:55:21.759Z,5.13
2022-09-30T19:57:48.601Z,5.07
2022-09-30T20:00:15.559Z,9.05
2022-09-30T20:02:42.440Z,6.00
2022-09-30T20:05:09.730Z,6.13
2022-09-30T20:07:36.540Z,4.63
2022-09-30T20:10:03.879Z,3.85
2022-09-30T20:12:30.688Z,4.00
2022-09-30T20:15:16.436Z,3.28
2022-09-30T20:17:43.285Z,2.13
2022-09-30T20:20:28.877Z,4.57
2022-09-30T20:22:56.801Z,5.22
2022-09-30T20:25:23.595Z,3.17
2022-09-30T20:27:52.613Z,4.68
2022-09-30T20:30:20.549Z,5.63
2022-09-30T20:32:47.413Z,6.75
2022-09-30T20:35:14.333Z,11.10
2022-09-30T20:37:42.657Z,10.20
2022-09-30T20:40:09.857Z,5.03
2022-09-30T20:42:38.217Z,5.90
2022-09-30T20:45:10.028Z,8.07
2022-09-30T20:47:45.484Z,5.55
2022-09-30T20:50:13.046Z,5.50
2022-09-30T20:52:39.908Z,4.85
2022-09-30T20:55:07.972Z,5.32
2022-09-30T20:57:34.947Z,4.22
2022-09-30T21:00:02.143Z,3.22
2022-09-30T21:02:29.549Z,6.72
2022-09-30T21:04:57.790Z,4.32
2022-09-30T21:07:26.278Z,4.85
2022-09-30T21:09:53.111Z,5.97
2022-09-30T21:12:20.033Z,7.53
2022-09-30T21:14:46.920Z,4.20
2022-09-30T21:17:13.749Z,5.05
2022-09-30T21:19:40.583Z,6.82
2022-09-30T21:22:07.507Z,10.57
2022-09-30T21:24:34.358Z,5.18
2022-09-30T21:27:01.549Z,8.32
2022-09-30T21:29:30.496Z,9.13
2022-09-30T21:31:57.596Z,6.95
2022-09-30T21:34:24.839Z,7.90
2022-09-30T21:36:51.689Z,7.32
2022-09-30T21:39:18.571Z,4.43
2022-09-30T21:41:46.067Z,8.88
2022-09-30T21:44:13.964Z,4.40
2022-09-30T21:46:44.706Z,6.43
2022-09-30T21:49:23.697Z,7.18
2022-09-30T21:51:53.272Z,6.25
2022-09-30T21:54:20.757Z,7.80
2022-09-30T21:56:48.420Z,9.73
2022-09-30T21:59:15.588Z,8.70
2022-09-30T22:01:42.602Z,8.68
2022-09-30T22:04:09.599Z,7.80
2022-09-30T22:06:36.498Z,7.88
2022-09-30T22:09:03.864Z,8.20
2022-09-30T22:11:32.360Z,6.63
2022-09-30T22:14:00.327Z,7.22
2022-09-30T22:16:31.962Z,3.90
2022-09-30T22:19:03.538Z,7.13
2022-09-30T22:21:34.572Z,11.80
2022-09-30T22:24:04.602Z,9.95
2022-09-30T22:26:32.850Z,5.30
2022-09-30T22:29:04.751Z,7.75
2022-09-30T22:31:33.996Z,8.25
2022-09-30T22:34:23.727Z,7.45
2022-09-30T22:37:09.717Z,6.10
2022-09-30T22:39:36.533Z,6.25
2022-09-30T22:42:03.943Z,5.05
2022-09-30T22:44:36.994Z,4.70
2022-09-30T22:47:07.876Z,5.60
2022-09-30T22:49:34.954Z,5.72
2022-09-30T22:52:03.557Z,6.30
2022-09-30T22:54:30.694Z,4.78
2022-09-30T22:56:59.253Z,4.93
2022-09-30T22:59:28.169Z,4.43
2022-09-30T23:01:57.077Z,3.45
2022-09-30T23:04:26.772Z,4.63
2022-09-30T23:06:55.529Z,5.03
2022-09-30T23:09:22.788Z,4.50
2022-09-30T23:11:54.086Z,5.22
2022-09-30T23:14:22.518Z,6.63
2022-09-30T23:16:50.235Z,4.70
2022-09-30T23:19:17.909Z,9.13
2022-09-30T23:21:44.788Z,8.60
2022-09-30T23:24:12.159Z,11.88
2022-09-30T23:26:39.683Z,9.55
2022-09-30T23:29:11.699Z,7.93
2022-09-30T23:32:21.708Z,4.95
2022-09-30T23:34:48.722Z,6.15
2022-09-30T23:37:15.933Z,4.50
2022-09-30T23:39:42.798Z,4.53
2022-09-30T23:42:09.594Z,9.52
2022-09-30T23:44:36.420Z,4.93
2022-09-30T23:47:18.181Z,4.95
2022-09-30T23:49:45.957Z,5.03
2022-09-30T23:52:13.824Z,6.32
2022-09-30T23:54:42.186Z,4.70
2022-09-30T23:57:10.558Z,6.20
2022-09-30T23:59:38.502Z,4.43
